createdAt,value
2018-09-24T00:00:59.094Z,87.32
2018-09-24T00:03:27.782Z,87.68
2018-09-24T00:05:56.486Z,87.32
2018-09-24T00:08:25.185Z,87.01
2018-09-24T00:10:53.758Z,86.83
2018-09-24T00:13:22.286Z,87.56
2018-09-24T00:15:51.040Z,87.17
2018-09-24T00:18:19.509Z,87.10
2018-09-24T00:20:48.193Z,86.91
2018-09-24T00:23:16.689Z,86.93
2018-09-24T00:25:45.548Z,87.08
2018-09-24T00:28:14.337Z,87.04
2018-09-24T00:30:43.012Z,87.58
2018-09-24T00:33:11.443Z,87.34
2018-09-24T00:35:40.275Z,87.59
2018-09-24T00:38:08.792Z,87.96
2018-09-24T00:40:37.979Z,87.55
2018-09-24T00:43:06.681Z,87.00
2018-09-24T00:45:35.274Z,86.57
2018-09-24T00:48:03.917Z,86.26
2018-09-24T00:50:33.051Z,86.04
2018-09-24T00:53:01.612Z,86.33
2018-09-24T00:55:30.209Z,86.54
2018-09-24T00:57:58.825Z,87.01
2018-09-24T01:00:27.359Z,87.16
2018-09-24T01:02:55.826Z,87.18
2018-09-24T01:05:24.405Z,87.23
2018-09-24T01:07:52.925Z,86.77
2018-09-24T01:10:21.903Z,87.48
2018-09-24T01:12:50.814Z,87.27
2018-09-24T01:15:19.351Z,87.23
2018-09-24T01:17:47.959Z,87.34
2018-09-24T01:20:16.851Z,86.82
2018-09-24T01:22:45.411Z,86.73
2018-09-24T01:25:14.033Z,87.40
2018-09-24T01:27:42.595Z,86.80
2018-09-24T01:30:11.396Z,87.18
2018-09-24T01:32:39.876Z,87.26
2018-09-24T01:35:08.355Z,86.95
2018-09-24T01:37:36.939Z,87.44
2018-09-24T01:40:05.527Z,87.88
2018-09-24T01:42:34.320Z,87.55
2018-09-24T01:45:03.070Z,87.44
2018-09-24T01:47:32.516Z,87.50
2018-09-24T01:50:00.954Z,87.30
2018-09-24T01:52:29.672Z,87.40
2018-09-24T01:54:58.275Z,87.42
2018-09-24T01:57:27.235Z,87.62
2018-09-24T01:59:56.893Z,87.62
2018-09-24T02:02:25.480Z,87.68
2018-09-24T02:04:54.633Z,87.43
2018-09-24T02:07:23.186Z,87.65
2018-09-24T02:09:51.801Z,87.88
2018-09-24T02:12:20.253Z,87.99
2018-09-24T02:14:48.777Z,87.91
2018-09-24T02:17:21.323Z,88.22
2018-09-24T02:19:50.508Z,87.71
2018-09-24T02:22:26.326Z,88.50
2018-09-24T02:24:55.742Z,88.32
2018-09-24T02:27:24.511Z,88.11
2018-09-24T02:29:52.991Z,88.12
2018-09-24T02:32:21.925Z,88.22
2018-09-24T02:34:52.224Z,87.99
2018-09-24T02:37:21.177Z,87.79
2018-09-24T02:39:49.931Z,87.43
2018-09-24T02:42:18.691Z,87.60
2018-09-24T02:44:49.289Z,87.57
2018-09-24T02:47:18.209Z,87.44
2018-09-24T02:49:46.949Z,87.28
2018-09-24T02:52:16.099Z,87.26
2018-09-24T02:54:44.659Z,86.93
2018-09-24T02:57:13.348Z,86.72
2018-09-24T02:59:45.455Z,86.77
2018-09-24T03:02:13.976Z,86.82
2018-09-24T03:04:42.729Z,86.80
2018-09-24T03:07:11.263Z,86.36
2018-09-24T03:09:39.746Z,86.01
2018-09-24T03:12:08.298Z,86.49
2018-09-24T03:14:36.824Z,86.83
2018-09-24T03:17:05.267Z,86.15
2018-09-24T03:19:33.747Z,86.59
2018-09-24T03:22:02.455Z,85.80
2018-09-24T03:24:31.148Z,85.78
2018-09-24T03:26:59.706Z,85.85
2018-09-24T03:29:28.277Z,85.79
2018-09-24T03:31:56.794Z,85.79
2018-09-24T03:34:25.569Z,85.70
2018-09-24T03:36:53.977Z,85.50
2018-09-24T03:39:22.543Z,85.43
2018-09-24T03:41:51.149Z,85.50
2018-09-24T03:44:19.583Z,85.19
2018-09-24T03:46:48.135Z,85.44
2018-09-24T03:49:16.644Z,85.67
2018-09-24T03:51:45.098Z,85.93
2018-09-24T03:54:14.112Z,86.05
2018-09-24T03:56:42.638Z,86.51
2018-09-24T03:59:11.152Z,86.73
2018-09-24T04:01:39.600Z,86.86
2018-09-24T04:04:13.325Z,86.92
2018-09-24T04:06:47.116Z,87.09
2018-09-24T04:09:21.114Z,86.89
2018-09-24T04:11:55.016Z,86.93
2018-09-24T04:14:28.800Z,86.81
2018-09-24T04:17:02.787Z,86.78
2018-09-24T04:19:36.867Z,87.05
2018-09-24T04:22:14.132Z,86.74
2018-09-24T04:24:47.919Z,87.11
2018-09-24T04:27:21.761Z,87.21
2018-09-24T04:29:55.561Z,87.09
2018-09-24T04:32:29.474Z,87.52
2018-09-24T04:35:03.418Z,87.17
2018-09-24T04:37:37.214Z,87.48
2018-09-24T04:40:11.328Z,87.08
2018-09-24T04:42:45.093Z,86.88
2018-09-24T04:45:19.164Z,86.86
2018-09-24T04:47:52.973Z,87.20
2018-09-24T04:50:26.885Z,86.49
2018-09-24T04:53:00.869Z,86.68
2018-09-24T04:55:34.671Z,86.85
2018-09-24T04:58:08.582Z,86.50
2018-09-24T05:00:42.488Z,86.59
2018-09-24T05:03:16.312Z,86.37
2018-09-24T05:06:03.498Z,86.93
2018-09-24T05:08:37.323Z,86.82
2018-09-24T05:11:11.439Z,86.80
2018-09-24T05:13:45.204Z,86.59
2018-09-24T05:16:19.151Z,86.57
2018-09-24T05:18:52.825Z,86.40
2018-09-24T05:21:26.610Z,86.63
2018-09-24T05:24:00.425Z,86.52
2018-09-24T05:26:34.372Z,86.41
2018-09-24T05:29:08.116Z,86.40
2018-09-24T05:31:42.139Z,86.42
2018-09-24T05:34:16.233Z,86.62
2018-09-24T05:36:49.955Z,86.62
2018-09-24T05:39:23.707Z,86.67
2018-09-24T05:41:57.625Z,86.16
2018-09-24T05:44:31.755Z,86.27
2018-09-24T05:47:05.987Z,86.41
2018-09-24T05:49:39.954Z,85.98
2018-09-24T05:52:13.590Z,86.12
2018-09-24T05:54:47.464Z,85.82
2018-09-24T05:57:21.301Z,85.71
2018-09-24T05:59:54.981Z,85.70
2018-09-24T06:02:28.882Z,85.46
2018-09-24T06:05:03.239Z,85.10
2018-09-24T06:07:37.085Z,85.01
2018-09-24T06:10:11.051Z,84.77
2018-09-24T06:12:44.843Z,84.49
2018-09-24T06:15:18.727Z,84.49
2018-09-24T06:17:56.126Z,84.70
2018-09-24T06:20:31.291Z,84.75
2018-09-24T06:23:05.915Z,84.01
2018-09-24T06:25:39.760Z,83.84
2018-09-24T06:28:13.754Z,83.45
2018-09-24T06:30:48.041Z,83.39
2018-09-24T06:33:21.883Z,83.35
2018-09-24T06:35:55.743Z,82.56
2018-09-24T06:38:29.651Z,81.37
2018-09-24T06:41:03.465Z,80.82
2018-09-24T06:43:37.659Z,80.85
2018-09-24T06:46:12.145Z,80.69
2018-09-24T06:48:45.883Z,79.57
2018-09-24T06:51:19.818Z,78.23
2018-09-24T06:53:53.514Z,78.02
2018-09-24T06:56:27.264Z,77.55
2018-09-24T06:59:01.127Z,77.23
2018-09-24T07:01:34.931Z,76.41
2018-09-24T07:04:08.783Z,76.48
2018-09-24T07:06:47.559Z,75.35
2018-09-24T07:09:21.821Z,74.34
2018-09-24T07:11:55.569Z,74.50
2018-09-24T07:14:29.281Z,73.56
2018-09-24T07:17:03.198Z,73.96
2018-09-24T07:19:37.019Z,74.46
2018-09-24T07:22:10.699Z,73.92
2018-09-24T07:24:44.615Z,74.29
2018-09-24T07:27:19.134Z,74.58
2018-09-24T07:29:52.930Z,73.74
2018-09-24T07:32:27.207Z,74.25
2018-09-24T07:35:00.990Z,74.00
2018-09-24T07:37:35.429Z,74.13
2018-09-24T07:40:09.185Z,73.67
2018-09-24T07:42:43.016Z,72.92
2018-09-24T07:45:16.783Z,73.07
2018-09-24T07:47:51.099Z,74.00
2018-09-24T07:50:24.938Z,73.32
2018-09-24T07:52:59.539Z,73.05
2018-09-24T07:55:33.473Z,73.16
2018-09-24T07:58:07.762Z,72.34
2018-09-24T08:00:41.783Z,72.39
2018-09-24T08:03:15.675Z,71.52
2018-09-24T08:05:49.504Z,71.37
2018-09-24T08:08:23.251Z,71.20
2018-09-24T08:10:57.157Z,70.73
2018-09-24T08:13:31.159Z,71.06
2018-09-24T08:16:05.139Z,71.53
2018-09-24T08:18:39.068Z,72.14
2018-09-24T08:21:13.050Z,71.93
2018-09-24T08:23:46.912Z,72.37
2018-09-24T08:26:20.701Z,72.13
2018-09-24T08:28:54.417Z,71.30
2018-09-24T08:31:28.721Z,71.16
2018-09-24T08:34:02.383Z,70.58
2018-09-24T08:36:36.334Z,70.78
2018-09-24T08:39:12.183Z,70.77
2018-09-24T08:41:46.346Z,70.92
2018-09-24T08:44:20.311Z,71.17
2018-09-24T08:46:55.298Z,71.67
2018-09-24T08:49:29.070Z,70.67
2018-09-24T08:52:02.778Z,70.38
2018-09-24T08:54:37.701Z,70.18
2018-09-24T08:57:12.317Z,69.46
2018-09-24T08:59:46.076Z,68.85
2018-09-24T09:02:20.388Z,68.56
2018-09-24T09:04:54.083Z,68.19
2018-09-24T09:07:27.860Z,67.04
2018-09-24T09:10:01.839Z,67.18
2018-09-24T09:12:35.732Z,66.02
2018-09-24T09:15:09.693Z,66.00
2018-09-24T09:17:44.059Z,66.59
2018-09-24T09:20:19.523Z,66.72
2018-09-24T09:22:53.267Z,65.96
2018-09-24T09:25:32.547Z,64.68
2018-09-24T09:28:06.481Z,61.18
2018-09-24T09:30:40.389Z,59.23
2018-09-24T09:33:14.036Z,58.35
2018-09-24T09:35:48.017Z,57.34
2018-09-24T09:38:21.943Z,56.50
2018-09-24T09:40:57.710Z,56.49
2018-09-24T09:43:32.774Z,57.40
2018-09-24T09:46:06.629Z,57.79
2018-09-24T09:48:40.453Z,59.39
2018-09-24T09:51:14.315Z,62.07
2018-09-24T09:53:48.082Z,63.38
2018-09-24T09:56:21.842Z,64.59
2018-09-24T09:58:55.721Z,63.86
2018-09-24T10:01:30.226Z,60.66
2018-09-24T10:04:04.067Z,56.24
2018-09-24T10:06:38.528Z,52.56
2018-09-24T10:09:13.440Z,51.12
2018-09-24T10:11:47.394Z,50.53
2018-09-24T10:14:21.086Z,51.60
2018-09-24T10:16:54.827Z,52.54
2018-09-24T10:19:28.652Z,53.03
2018-09-24T10:22:02.330Z,51.88
2018-09-24T10:24:36.157Z,48.38
2018-09-24T10:27:10.023Z,45.94
2018-09-24T10:29:43.821Z,45.78
2018-09-24T10:32:17.604Z,45.51
2018-09-24T10:34:51.332Z,45.10
2018-09-24T10:37:25.184Z,46.53
2018-09-24T10:39:58.949Z,48.52
2018-09-24T10:42:32.804Z,48.93
2018-09-24T10:45:09.642Z,49.55
2018-09-24T10:47:43.619Z,50.47
2018-09-24T10:50:17.679Z,53.48
2018-09-24T10:52:51.802Z,55.70
2018-09-24T10:55:25.477Z,55.61
2018-09-24T10:57:59.697Z,55.21
2018-09-24T11:00:33.502Z,53.61
2018-09-24T11:03:07.493Z,53.48
2018-09-24T11:05:41.117Z,53.63
2018-09-24T11:08:20.720Z,54.22
2018-09-24T11:10:55.760Z,53.73
2018-09-24T11:13:29.494Z,53.64
2018-09-24T11:16:04.174Z,51.89
2018-09-24T11:18:38.069Z,51.24
2018-09-24T11:21:11.663Z,51.64
2018-09-24T11:23:45.474Z,51.86
2018-09-24T11:28:53.898Z,52.59
2018-09-24T11:31:27.707Z,51.16
2018-09-24T11:34:01.454Z,51.93
2018-09-24T11:36:35.370Z,52.00
2018-09-24T11:39:09.429Z,52.88
2018-09-24T11:41:43.399Z,54.13
2018-09-24T11:44:17.411Z,53.69
2018-09-24T11:46:52.391Z,50.90
2018-09-24T11:49:26.276Z,47.97
2018-09-24T11:52:00.193Z,48.20
2018-09-24T11:54:34.111Z,49.50
2018-09-24T11:57:08.278Z,52.11
2018-09-24T11:59:42.223Z,54.21
2018-09-24T12:02:16.007Z,53.44
2018-09-24T12:04:50.431Z,51.40
2018-09-24T12:07:24.386Z,45.47
2018-09-24T12:09:58.241Z,43.34
2018-09-24T12:12:32.164Z,42.56
2018-09-24T12:15:06.064Z,42.39
2018-09-24T12:17:39.948Z,41.65
2018-09-24T12:20:14.083Z,40.59
2018-09-24T12:22:47.690Z,39.14
2018-09-24T12:25:26.863Z,39.81
2018-09-24T12:28:01.116Z,39.20
2018-09-24T12:30:34.808Z,39.91
2018-09-24T12:33:08.606Z,39.16
2018-09-24T12:38:33.252Z,38.36
2018-09-24T12:41:07.162Z,38.85
2018-09-24T12:43:40.894Z,38.05
2018-09-24T12:46:14.643Z,38.12
2018-09-24T12:48:48.700Z,38.18
2018-09-24T12:51:22.450Z,37.53
2018-09-24T12:53:56.064Z,37.00
2018-09-24T12:56:30.500Z,37.20
2018-09-24T12:59:04.592Z,36.88
2018-09-24T13:01:38.272Z,37.04
2018-09-24T13:04:12.000Z,36.36
2018-09-24T13:06:45.844Z,35.56
2018-09-24T13:09:20.228Z,34.51
2018-09-24T13:11:56.769Z,33.65
2018-09-24T13:14:30.666Z,35.28
2018-09-24T13:17:04.721Z,38.78
2018-09-24T13:19:38.289Z,42.70
2018-09-24T13:22:12.509Z,45.30
2018-09-24T13:24:46.235Z,48.13
2018-09-24T13:27:19.942Z,49.99
2018-09-24T13:29:54.020Z,53.29
2018-09-24T13:32:27.828Z,55.96
2018-09-24T13:35:01.735Z,58.47
2018-09-24T13:37:35.646Z,60.13
2018-09-24T13:40:09.641Z,60.90
2018-09-24T13:42:43.156Z,60.73
2018-09-24T13:45:16.919Z,61.09
2018-09-24T13:47:50.766Z,60.36
2018-09-24T13:50:25.018Z,56.18
2018-09-24T13:52:58.836Z,55.26
2018-09-24T13:55:33.522Z,54.67
2018-09-24T13:58:07.537Z,54.76
2018-09-24T14:00:41.333Z,54.58
2018-09-24T14:03:15.085Z,55.22
2018-09-24T14:05:48.904Z,55.36
2018-09-24T14:08:23.242Z,55.49
2018-09-24T14:10:57.968Z,55.81
2018-09-24T14:13:32.833Z,55.83
2018-09-24T14:16:07.820Z,55.32
2018-09-24T14:18:41.933Z,56.91
2018-09-24T14:21:16.749Z,56.98
2018-09-24T14:23:50.475Z,58.42
2018-09-24T14:26:24.282Z,59.70
2018-09-24T14:28:58.145Z,60.71
2018-09-24T14:31:32.028Z,63.02
2018-09-24T14:34:05.904Z,64.19
2018-09-24T14:36:39.636Z,64.89
2018-09-24T14:39:14.672Z,65.64
2018-09-24T14:41:48.873Z,66.09
2018-09-24T14:44:22.432Z,66.05
2018-09-24T14:46:56.252Z,63.23
2018-09-24T14:49:30.411Z,62.57
2018-09-24T14:52:04.143Z,62.43
2018-09-24T14:54:37.923Z,62.07
2018-09-24T14:57:12.386Z,62.23
2018-09-24T14:59:46.344Z,62.43
2018-09-24T15:02:20.254Z,61.84
2018-09-24T15:04:54.185Z,61.17
2018-09-24T15:07:28.102Z,61.88
2018-09-24T15:10:01.954Z,61.95
2018-09-24T15:12:36.100Z,62.29
2018-09-24T15:15:10.006Z,62.92
2018-09-24T15:17:43.784Z,62.86
2018-09-24T15:20:17.665Z,63.40
2018-09-24T15:22:51.449Z,63.80
2018-09-24T15:25:25.279Z,63.84
2018-09-24T15:28:00.057Z,64.39
2018-09-24T15:30:34.100Z,64.29
2018-09-24T15:33:07.901Z,65.08
2018-09-24T15:35:41.932Z,64.92
2018-09-24T15:38:15.756Z,65.44
2018-09-24T15:40:49.621Z,65.65
2018-09-24T15:43:23.756Z,65.54
2018-09-24T15:46:05.063Z,64.96
2018-09-24T15:48:38.844Z,64.69
2018-09-24T15:51:12.651Z,64.00
2018-09-24T15:53:50.378Z,63.80
2018-09-24T15:56:24.400Z,63.68
2018-09-24T15:58:58.241Z,63.38
2018-09-24T16:01:32.072Z,63.05
2018-09-24T16:04:08.791Z,63.30
2018-09-24T16:06:42.652Z,63.63
2018-09-24T16:09:16.412Z,63.64
2018-09-24T16:11:50.209Z,63.58
2018-09-24T16:14:25.319Z,64.41
2018-09-24T16:16:59.513Z,64.28
2018-09-24T16:19:33.392Z,64.37
2018-09-24T16:22:07.336Z,63.98
2018-09-24T16:24:41.165Z,64.12
2018-09-24T16:27:15.262Z,64.58
2018-09-24T16:29:49.153Z,64.99
2018-09-24T16:32:23.214Z,65.31
2018-09-24T16:34:57.024Z,65.87
2018-09-24T16:37:30.819Z,66.10
2018-09-24T16:40:04.816Z,66.45
2018-09-24T16:42:38.576Z,66.60
2018-09-24T16:45:12.220Z,67.09
2018-09-24T16:47:45.920Z,67.16
2018-09-24T16:50:19.769Z,67.35
2018-09-24T16:52:53.527Z,67.30
2018-09-24T16:55:27.544Z,67.87
2018-09-24T16:58:01.251Z,68.07
2018-09-24T17:00:35.034Z,68.49
2018-09-24T17:03:08.763Z,68.74
2018-09-24T17:05:42.715Z,68.89
2018-09-24T17:08:16.624Z,69.33
2018-09-24T17:10:50.543Z,69.47
2018-09-24T17:13:24.228Z,69.68
2018-09-24T17:15:58.292Z,69.93
2018-09-24T17:18:32.187Z,70.09
2018-09-24T17:21:06.066Z,70.13
2018-09-24T17:23:39.980Z,70.47
2018-09-24T17:26:13.886Z,70.47
2018-09-24T17:28:47.792Z,70.72
2018-09-24T17:31:21.424Z,70.89
2018-09-24T17:33:55.344Z,70.51
2018-09-24T17:36:29.584Z,70.91
2018-09-24T17:39:03.577Z,70.75
2018-09-24T17:41:37.522Z,71.41
2018-09-24T17:44:11.843Z,71.32
2018-09-24T17:46:45.850Z,71.35
2018-09-24T17:49:19.848Z,71.51
2018-09-24T17:51:53.896Z,71.65
2018-09-24T17:54:27.742Z,71.92
2018-09-24T17:57:01.687Z,72.03
2018-09-24T17:59:35.328Z,72.03
2018-09-24T18:02:09.085Z,72.35
2018-09-24T18:04:43.118Z,72.31
2018-09-24T18:07:16.901Z,72.28
2018-09-24T18:09:51.163Z,72.41
2018-09-24T18:15:10.810Z,72.16
2018-09-24T18:17:44.542Z,70.94
2018-09-24T18:20:18.424Z,70.87
2018-09-24T18:22:52.818Z,70.53
2018-09-24T18:25:26.676Z,70.19
2018-09-24T18:28:00.453Z,69.87
2018-09-24T18:30:34.410Z,69.83
2018-09-24T18:33:08.338Z,69.71
2018-09-24T18:35:42.240Z,70.00
2018-09-24T18:38:16.802Z,69.71
2018-09-24T18:40:50.844Z,69.54
2018-09-24T18:43:24.499Z,69.34
2018-09-24T18:46:03.368Z,69.12
2018-09-24T18:48:37.620Z,69.31
2018-09-24T18:51:11.722Z,69.10
2018-09-24T18:53:45.678Z,69.13
2018-09-24T18:56:19.625Z,69.95
2018-09-24T18:58:53.378Z,69.93
2018-09-24T19:01:27.438Z,69.91
2018-09-24T19:04:01.162Z,70.32
2018-09-24T19:06:34.910Z,70.21
2018-09-24T19:09:08.758Z,70.15
2018-09-24T19:11:42.749Z,70.16
2018-09-24T19:14:16.627Z,70.25
2018-09-24T19:16:50.281Z,70.05
2018-09-24T19:19:24.291Z,70.20
2018-09-24T19:21:58.539Z,69.80
2018-09-24T19:24:32.258Z,69.83
2018-09-24T19:27:06.234Z,69.44
2018-09-24T19:29:39.892Z,69.24
2018-09-24T19:32:13.628Z,69.36
2018-09-24T19:34:47.956Z,69.73
2018-09-24T19:37:22.306Z,69.68
2018-09-24T19:39:56.160Z,69.87
2018-09-24T19:42:30.605Z,69.94
2018-09-24T19:45:04.714Z,69.60
2018-09-24T19:47:38.578Z,69.61
2018-09-24T19:50:12.545Z,69.30
2018-09-24T19:52:46.293Z,69.46
2018-09-24T19:55:20.158Z,69.03
2018-09-24T19:57:53.844Z,68.74
2018-09-24T20:00:27.639Z,69.08
2018-09-24T20:03:01.887Z,68.93
2018-09-24T20:05:40.610Z,69.14
2018-09-24T20:08:14.790Z,69.21
2018-09-24T20:10:48.699Z,68.97
2018-09-24T20:13:22.435Z,68.93
2018-09-24T20:15:57.216Z,68.98
2018-09-24T20:18:30.933Z,69.31
2018-09-24T20:21:04.773Z,69.07
2018-09-24T20:23:39.236Z,69.61
2018-09-24T20:26:31.471Z,69.29
2018-09-24T20:29:05.756Z,69.34
2018-09-24T20:31:39.587Z,69.46
2018-09-24T20:34:13.477Z,69.81
2018-09-24T20:37:04.662Z,69.32
2018-09-24T20:39:38.461Z,69.93
2018-09-24T20:42:12.468Z,70.19
2018-09-24T20:44:46.816Z,70.44
2018-09-24T20:47:20.616Z,70.48
2018-09-24T20:49:54.862Z,70.44
2018-09-24T20:52:28.572Z,70.44
2018-09-24T20:55:02.629Z,70.41
2018-09-24T20:57:36.663Z,70.31
2018-09-24T21:00:10.780Z,70.69
2018-09-24T21:02:44.559Z,70.52
2018-09-24T21:05:18.380Z,70.69
2018-09-24T21:07:52.374Z,71.00
2018-09-24T21:10:26.510Z,71.22
2018-09-24T21:13:00.387Z,71.38
2018-09-24T21:15:39.178Z,71.61
2018-09-24T21:18:12.948Z,71.74
2018-09-24T21:20:46.724Z,71.08
2018-09-24T21:23:20.451Z,70.94
2018-09-24T21:25:55.000Z,71.51
2018-09-24T21:28:28.925Z,71.82
2018-09-24T21:31:02.631Z,71.77
2018-09-24T21:33:36.313Z,71.65
2018-09-24T21:36:10.346Z,71.46
2018-09-24T21:38:44.019Z,71.49
2018-09-24T21:41:17.992Z,71.66
2018-09-24T21:43:51.885Z,71.93
2018-09-24T21:46:25.835Z,72.12
2018-09-24T21:48:59.532Z,72.59
2018-09-24T21:51:33.338Z,72.31
2018-09-24T21:54:07.400Z,72.33
2018-09-24T21:56:54.806Z,72.55
2018-09-24T21:59:28.503Z,72.67
2018-09-24T22:02:02.119Z,72.70
2018-09-24T22:04:35.908Z,73.12
2018-09-24T22:07:10.224Z,72.96
2018-09-24T22:09:43.923Z,73.04
2018-09-24T22:12:17.841Z,73.35
2018-09-24T22:14:51.613Z,73.34
2018-09-24T22:17:25.575Z,73.28
2018-09-24T22:20:00.652Z,73.02
2018-09-24T22:22:34.493Z,73.03
2018-09-24T22:25:08.306Z,73.05
2018-09-24T22:27:42.217Z,73.27
2018-09-24T22:30:15.811Z,73.29
2018-09-24T22:32:49.619Z,73.37
2018-09-24T22:35:23.723Z,73.81
2018-09-24T22:37:57.466Z,74.59
2018-09-24T22:40:31.545Z,74.29
2018-09-24T22:43:05.301Z,74.37
2018-09-24T22:45:39.025Z,74.74
2018-09-24T22:48:12.631Z,74.99
2018-09-24T22:50:46.613Z,75.76
2018-09-24T22:53:20.630Z,76.25
2018-09-24T22:55:54.325Z,76.57
2018-09-24T22:58:28.746Z,76.75
2018-09-24T23:01:03.253Z,76.76
2018-09-24T23:03:37.379Z,77.28
2018-09-24T23:06:13.475Z,77.49
2018-09-24T23:08:47.191Z,77.96
2018-09-24T23:11:21.007Z,78.05
2018-09-24T23:13:55.415Z,78.47
2018-09-24T23:16:29.141Z,78.29
2018-09-24T23:19:02.987Z,78.19
2018-09-24T23:21:36.819Z,78.31
2018-09-24T23:24:10.730Z,78.75
2018-09-24T23:26:44.861Z,78.54
2018-09-24T23:29:18.875Z,78.60
2018-09-24T23:31:52.799Z,78.62
2018-09-24T23:34:28.285Z,78.70
2018-09-24T23:37:02.044Z,78.64
2018-09-24T23:39:35.683Z,78.43
2018-09-24T23:42:10.867Z,78.69
2018-09-24T23:44:45.635Z,78.55
2018-09-24T23:47:20.074Z,78.54
2018-09-24T23:49:53.877Z,79.05
2018-09-24T23:52:28.019Z,79.56
2018-09-24T23:55:01.787Z,79.38
2018-09-24T23:57:36.511Z,79.09
